createdAt,value
2024-01-06T00:01:28.906Z,7.38
2024-01-06T00:03:56.395Z,7.32
2024-01-06T00:06:23.393Z,6.63
2024-01-06T00:08:55.304Z,7.20
2024-01-06T00:11:23.285Z,6.72
2024-01-06T00:13:50.907Z,5.53
2024-01-06T00:16:20.044Z,6.45
2024-01-06T00:18:48.171Z,7.60
2024-01-06T00:21:15.242Z,8.00
2024-01-06T00:23:42.584Z,6.43
2024-01-06T00:26:11.398Z,7.25
2024-01-06T00:28:40.042Z,8.15
2024-01-06T00:31:07.621Z,6.22
2024-01-06T00:33:34.734Z,6.95
2024-01-06T00:36:01.729Z,6.43
2024-01-06T00:38:28.540Z,6.00
2024-01-06T00:40:55.487Z,8.77
2024-01-06T00:43:22.260Z,8.35
2024-01-06T00:45:49.608Z,9.75
2024-01-06T00:48:16.750Z,7.07
2024-01-06T00:50:43.877Z,9.98
2024-01-06T00:53:10.809Z,8.93
2024-01-06T00:55:37.745Z,6.78
2024-01-06T00:58:04.864Z,7.38
2024-01-06T01:00:31.844Z,8.45
2024-01-06T01:02:58.641Z,6.88
2024-01-06T01:05:25.581Z,6.18
2024-01-06T01:07:52.399Z,6.78
2024-01-06T01:10:19.297Z,5.32
2024-01-06T01:12:46.340Z,8.45
2024-01-06T01:15:13.332Z,7.43
2024-01-06T01:17:40.268Z,6.18
2024-01-06T01:20:07.744Z,5.97
2024-01-06T01:22:34.706Z,8.68
2024-01-06T01:25:06.462Z,7.93
2024-01-06T01:27:33.395Z,6.05
2024-01-06T01:30:00.695Z,6.57
2024-01-06T01:32:27.635Z,6.60
2024-01-06T01:34:54.901Z,6.88
2024-01-06T01:37:21.888Z,6.93
2024-01-06T01:39:48.861Z,6.00
2024-01-06T01:42:16.053Z,6.60
2024-01-06T01:44:42.842Z,6.10
2024-01-06T01:47:09.765Z,5.85
2024-01-06T01:49:37.279Z,6.70
2024-01-06T01:52:04.735Z,6.55
2024-01-06T01:54:31.702Z,7.90
2024-01-06T01:56:59.844Z,9.15
2024-01-06T01:59:26.821Z,5.97
2024-01-06T02:01:53.831Z,6.90
2024-01-06T02:04:20.665Z,7.60
2024-01-06T02:06:48.019Z,4.45
2024-01-06T02:09:15.023Z,9.90
2024-01-06T02:11:42.022Z,7.25
2024-01-06T02:14:08.897Z,8.30
2024-01-06T02:16:35.832Z,7.38
2024-01-06T02:19:03.726Z,7.07
2024-01-06T02:21:33.799Z,9.05
2024-01-06T02:24:00.794Z,4.95
2024-01-06T02:26:27.817Z,5.65
2024-01-06T02:28:54.577Z,7.28
2024-01-06T02:31:21.714Z,5.57
2024-01-06T02:33:48.719Z,6.97
2024-01-06T02:36:15.641Z,7.10
2024-01-06T02:38:42.572Z,4.93
2024-01-06T02:41:09.444Z,7.47
2024-01-06T02:43:36.288Z,6.88
2024-01-06T02:46:03.309Z,7.25
2024-01-06T02:48:31.943Z,6.70
2024-01-06T02:50:58.953Z,4.85
2024-01-06T02:53:25.773Z,6.20
2024-01-06T02:55:52.587Z,5.55
2024-01-06T02:58:19.425Z,6.68
2024-01-06T03:00:46.320Z,6.72
2024-01-06T03:03:13.285Z,5.18
2024-01-06T03:05:40.237Z,6.68
2024-01-06T03:08:07.115Z,6.75
2024-01-06T03:10:34.944Z,8.70
2024-01-06T03:13:01.806Z,6.07
2024-01-06T03:15:28.781Z,6.03
2024-01-06T03:17:55.752Z,6.82
2024-01-06T03:20:22.668Z,7.40
2024-01-06T03:22:50.635Z,5.05
2024-01-06T03:25:17.460Z,7.07
2024-01-06T03:27:45.047Z,5.53
2024-01-06T03:30:12.881Z,6.32
2024-01-06T03:32:39.912Z,4.97
2024-01-06T03:35:07.720Z,4.82
2024-01-06T03:37:34.724Z,7.20
2024-01-06T03:40:02.003Z,6.53
2024-01-06T03:42:28.964Z,8.90
2024-01-06T03:44:55.768Z,6.85
2024-01-06T03:47:22.733Z,6.30
2024-01-06T03:49:49.784Z,6.75
2024-01-06T03:52:16.764Z,5.35
2024-01-06T03:54:43.727Z,6.80
2024-01-06T03:57:10.792Z,6.45
2024-01-06T03:59:37.975Z,8.23
2024-01-06T04:02:05.020Z,4.80
2024-01-06T04:04:32.066Z,6.07
2024-01-06T04:06:59.373Z,6.00
2024-01-06T04:09:26.245Z,6.88
2024-01-06T04:11:53.148Z,9.40
2024-01-06T04:14:19.966Z,6.15
2024-01-06T04:16:47.032Z,5.72
2024-01-06T04:19:14.937Z,6.60
2024-01-06T04:21:41.923Z,5.97
2024-01-06T04:24:09.824Z,4.13
2024-01-06T04:26:36.575Z,6.63
2024-01-06T04:29:03.472Z,5.70
2024-01-06T04:31:30.330Z,6.95
2024-01-06T04:33:57.363Z,4.95
2024-01-06T04:36:24.420Z,8.07
2024-01-06T04:38:51.400Z,6.13
2024-01-06T04:41:18.370Z,5.97
2024-01-06T04:43:45.273Z,4.80
2024-01-06T04:46:12.249Z,5.82
2024-01-06T04:48:41.546Z,7.95
2024-01-06T04:51:11.521Z,7.35
2024-01-06T04:53:39.283Z,5.50
2024-01-06T04:56:06.120Z,4.97
2024-01-06T04:58:32.910Z,7.63
2024-01-06T05:00:59.942Z,5.35
2024-01-06T05:03:27.010Z,7.63
2024-01-06T05:05:53.903Z,4.95
2024-01-06T05:08:21.291Z,5.38
2024-01-06T05:10:50.029Z,5.97
2024-01-06T05:13:18.541Z,7.32
2024-01-06T05:15:45.434Z,4.32
2024-01-06T05:18:12.594Z,5.35
2024-01-06T05:20:41.888Z,4.38
2024-01-06T05:23:08.896Z,6.40
2024-01-06T05:25:35.813Z,6.25
2024-01-06T05:28:02.868Z,4.68
2024-01-06T05:30:29.752Z,6.53
2024-01-06T05:32:57.412Z,5.00
2024-01-06T05:35:24.451Z,6.97
2024-01-06T05:37:51.435Z,6.22
2024-01-06T05:40:18.360Z,4.18
2024-01-06T05:42:45.430Z,4.30
2024-01-06T05:45:15.695Z,4.43
2024-01-06T05:47:42.960Z,4.95
2024-01-06T05:50:12.825Z,5.78
2024-01-06T05:52:40.157Z,5.10
2024-01-06T05:55:07.172Z,4.60
2024-01-06T05:57:34.022Z,2.95
2024-01-06T06:00:01.313Z,6.00
2024-01-06T06:02:28.278Z,5.22
2024-01-06T06:04:55.121Z,4.70
2024-01-06T06:07:21.974Z,5.82
2024-01-06T06:09:49.271Z,4.25
2024-01-06T06:12:16.482Z,5.15
2024-01-06T06:14:43.346Z,4.95
2024-01-06T06:17:10.290Z,3.78
2024-01-06T06:19:37.267Z,3.55
2024-01-06T06:22:04.568Z,4.28
2024-01-06T06:24:31.469Z,3.20
2024-01-06T06:26:58.536Z,4.45
2024-01-06T06:29:25.383Z,4.28
2024-01-06T06:31:52.395Z,2.53
2024-01-06T06:34:20.119Z,2.63
2024-01-06T06:36:47.523Z,3.08
2024-01-06T06:39:14.560Z,3.42
2024-01-06T06:41:41.612Z,2.65
2024-01-06T06:44:08.543Z,3.60
2024-01-06T06:46:35.486Z,2.30
2024-01-06T06:49:02.720Z,4.93
2024-01-06T06:51:31.535Z,2.08
2024-01-06T06:53:59.666Z,3.17
2024-01-06T06:56:26.690Z,3.15
2024-01-06T06:58:53.757Z,1.98
2024-01-06T07:01:20.723Z,2.13
2024-01-06T07:03:47.752Z,1.77
2024-01-06T07:06:15.745Z,1.88
2024-01-06T07:08:43.462Z,0.85
2024-01-06T07:11:12.769Z,1.25
2024-01-06T07:13:39.758Z,1.90
2024-01-06T07:16:15.072Z,1.38
2024-01-06T07:18:45.849Z,0.90
2024-01-06T07:21:13.692Z,0.65
2024-01-06T07:23:41.364Z,1.10
2024-01-06T07:26:09.616Z,1.08
2024-01-06T07:28:36.500Z,1.90
2024-01-06T07:31:03.697Z,2.22
2024-01-06T07:33:30.761Z,2.25
2024-01-06T07:35:57.791Z,1.15
2024-01-06T07:38:24.554Z,2.17
2024-01-06T07:40:51.422Z,1.02
2024-01-06T07:43:18.455Z,1.15
2024-01-06T07:45:45.556Z,1.50
2024-01-06T07:48:12.689Z,2.10
2024-01-06T07:50:39.653Z,1.77
2024-01-06T07:53:06.595Z,2.40
2024-01-06T07:55:33.521Z,2.70
2024-01-06T07:58:00.498Z,1.75
2024-01-06T08:00:27.650Z,2.40
2024-01-06T08:02:54.514Z,1.08
2024-01-06T08:05:21.559Z,1.80
2024-01-06T08:07:48.622Z,2.25
2024-01-06T08:10:15.477Z,1.40
2024-01-06T08:12:42.484Z,0.90
2024-01-06T08:15:10.483Z,2.97
2024-01-06T08:17:38.621Z,1.85
2024-01-06T08:20:06.180Z,2.40
2024-01-06T08:22:33.068Z,3.10
2024-01-06T08:24:59.984Z,2.55
2024-01-06T08:27:26.902Z,1.75
2024-01-06T08:29:54.017Z,1.83
2024-01-06T08:32:21.025Z,1.60
2024-01-06T08:34:48.486Z,2.15
2024-01-06T08:37:15.653Z,1.58
2024-01-06T08:39:42.782Z,1.35
2024-01-06T08:42:09.789Z,1.95
2024-01-06T08:44:36.743Z,1.52
2024-01-06T08:47:04.090Z,2.58
2024-01-06T08:49:31.260Z,1.90
2024-01-06T08:51:59.097Z,1.70
2024-01-06T08:54:26.502Z,1.48
2024-01-06T08:56:53.394Z,1.02
2024-01-06T08:59:21.350Z,1.95
2024-01-06T09:01:50.469Z,1.92
2024-01-06T09:04:17.683Z,2.00
2024-01-06T09:06:45.033Z,3.13
2024-01-06T09:09:12.211Z,1.42
2024-01-06T09:11:39.127Z,1.63
2024-01-06T09:14:06.158Z,1.95
2024-01-06T09:16:35.275Z,1.80
2024-01-06T09:19:02.389Z,1.42
2024-01-06T09:21:29.373Z,3.28
2024-01-06T09:23:56.356Z,2.00
2024-01-06T09:26:23.420Z,1.85
2024-01-06T09:28:50.391Z,1.55
2024-01-06T09:31:17.426Z,1.60
2024-01-06T09:33:44.610Z,1.50
2024-01-06T09:36:13.422Z,2.38
2024-01-06T09:38:40.504Z,2.60
2024-01-06T09:41:07.751Z,3.55
2024-01-06T09:43:34.984Z,2.50
2024-01-06T09:46:27.315Z,2.03
2024-01-06T09:48:55.539Z,3.70
2024-01-06T09:51:23.449Z,1.02
2024-01-06T09:54:01.428Z,1.23
2024-01-06T09:56:29.934Z,2.80
2024-01-06T09:58:57.468Z,2.10
2024-01-06T10:01:24.633Z,2.53
2024-01-06T10:03:51.606Z,1.77
2024-01-06T10:06:19.599Z,2.10
2024-01-06T10:08:53.797Z,1.83
2024-01-06T10:11:23.182Z,1.70
2024-01-06T10:13:55.205Z,2.53
2024-01-06T10:16:23.842Z,3.28
2024-01-06T10:18:53.846Z,5.57
2024-01-06T10:21:23.218Z,2.83
2024-01-06T10:23:50.341Z,2.55
2024-01-06T10:26:19.016Z,4.50
2024-01-06T10:28:45.854Z,3.67
2024-01-06T10:31:16.059Z,3.45
2024-01-06T10:34:01.718Z,3.03
2024-01-06T10:36:47.218Z,2.88
2024-01-06T10:39:17.077Z,2.67
2024-01-06T10:41:45.441Z,2.53
2024-01-06T10:44:12.637Z,2.75
2024-01-06T10:46:40.248Z,2.60
2024-01-06T10:49:12.362Z,1.92
2024-01-06T10:51:39.994Z,2.28
2024-01-06T10:54:07.420Z,3.58
2024-01-06T10:56:42.230Z,3.90
2024-01-06T10:59:09.946Z,2.15
2024-01-06T11:01:37.678Z,2.85
2024-01-06T11:04:06.120Z,3.42
2024-01-06T11:06:36.690Z,5.40
2024-01-06T11:09:36.736Z,2.60
2024-01-06T11:12:04.105Z,7.53
2024-01-06T11:14:31.067Z,3.58
2024-01-06T11:16:57.971Z,2.53
2024-01-06T11:19:38.557Z,2.72
2024-01-06T11:22:41.372Z,3.90
2024-01-06T11:25:10.078Z,5.28
2024-01-06T11:27:37.888Z,3.17
2024-01-06T11:30:09.008Z,2.60
2024-01-06T11:32:39.680Z,2.45
2024-01-06T11:35:10.420Z,2.78
2024-01-06T11:37:42.207Z,3.42
2024-01-06T11:40:10.621Z,5.75
2024-01-06T11:42:37.644Z,4.38
2024-01-06T11:45:08.499Z,2.03
2024-01-06T11:47:36.485Z,1.60
2024-01-06T11:50:07.181Z,1.52
2024-01-06T11:52:34.867Z,3.53
2024-01-06T11:55:03.353Z,4.95
2024-01-06T11:57:30.831Z,3.15
2024-01-06T11:59:57.716Z,2.60
2024-01-06T12:02:24.628Z,2.30
2024-01-06T12:04:53.105Z,3.25
2024-01-06T12:07:23.366Z,2.03
2024-01-06T12:09:52.433Z,4.55
2024-01-06T12:12:20.181Z,2.97
2024-01-06T12:14:48.120Z,2.35
2024-01-06T12:17:15.804Z,4.18
2024-01-06T12:19:46.686Z,3.50
2024-01-06T12:22:15.748Z,2.13
2024-01-06T12:24:43.753Z,3.70
2024-01-06T12:27:11.346Z,3.40
2024-01-06T12:29:40.315Z,4.28
2024-01-06T12:32:08.475Z,2.80
2024-01-06T12:34:38.666Z,2.58
2024-01-06T12:37:06.797Z,2.25
2024-01-06T12:39:33.744Z,2.30
2024-01-06T12:42:02.786Z,3.20
2024-01-06T12:44:30.091Z,1.27
2024-01-06T12:46:57.138Z,3.75
2024-01-06T12:49:24.378Z,2.35
2024-01-06T12:51:51.761Z,3.13
2024-01-06T12:54:18.876Z,3.35
2024-01-06T12:56:45.833Z,3.28
2024-01-06T12:59:12.898Z,3.33
2024-01-06T13:01:40.527Z,3.22
2024-01-06T13:04:07.723Z,3.22
2024-01-06T13:06:35.756Z,2.85
2024-01-06T13:09:07.190Z,4.30
2024-01-06T13:11:37.382Z,2.28
2024-01-06T13:14:04.498Z,3.90
2024-01-06T13:16:31.712Z,2.53
2024-01-06T13:18:58.889Z,4.72
2024-01-06T13:21:26.115Z,3.15
2024-01-06T13:23:53.176Z,3.00
2024-01-06T13:26:20.178Z,2.53
2024-01-06T13:28:47.559Z,4.20
2024-01-06T13:31:14.901Z,3.00
2024-01-06T13:33:42.652Z,2.42
2024-01-06T13:36:10.081Z,2.95
2024-01-06T13:38:36.987Z,2.78
2024-01-06T13:41:04.291Z,2.22
2024-01-06T13:43:33.212Z,3.17
2024-01-06T13:46:00.658Z,4.57
2024-01-06T13:48:27.827Z,2.15
2024-01-06T13:50:55.427Z,4.55
2024-01-06T13:53:22.226Z,1.85
2024-01-06T13:55:49.173Z,2.55
2024-01-06T13:58:16.038Z,2.97
2024-01-06T14:00:45.903Z,2.95
2024-01-06T14:03:13.184Z,1.40
2024-01-06T14:05:41.326Z,2.88
2024-01-06T14:08:08.335Z,1.30
2024-01-06T14:10:35.321Z,3.17
2024-01-06T14:13:02.565Z,4.57
2024-01-06T14:15:31.977Z,3.53
2024-01-06T14:17:59.080Z,2.45
2024-01-06T14:20:26.094Z,1.73
2024-01-06T14:22:53.105Z,3.70
2024-01-06T14:25:23.286Z,3.10
2024-01-06T14:27:50.504Z,3.75
2024-01-06T14:30:17.901Z,3.78
2024-01-06T14:32:44.908Z,5.40
2024-01-06T14:35:12.722Z,3.25
2024-01-06T14:37:39.923Z,2.38
2024-01-06T14:40:08.932Z,2.42
2024-01-06T14:42:37.673Z,2.03
2024-01-06T14:45:05.360Z,2.20
2024-01-06T14:47:33.695Z,2.17
2024-01-06T14:50:00.889Z,2.30
2024-01-06T14:52:28.895Z,1.27
2024-01-06T14:54:56.182Z,2.45
2024-01-06T14:57:23.163Z,2.47
2024-01-06T14:59:50.176Z,1.35
2024-01-06T15:02:17.603Z,1.35
2024-01-06T15:04:44.622Z,2.05
2024-01-06T15:07:11.787Z,3.05
2024-01-06T15:09:43.116Z,1.88
2024-01-06T15:12:10.086Z,3.58
2024-01-06T15:14:36.957Z,1.83
2024-01-06T15:17:06.662Z,4.25
2024-01-06T15:19:34.863Z,3.45
2024-01-06T15:22:01.984Z,2.47
2024-01-06T15:24:29.070Z,1.85
2024-01-06T15:26:56.039Z,2.22
2024-01-06T15:29:23.374Z,1.85
2024-01-06T15:31:50.489Z,1.63
2024-01-06T15:34:17.631Z,3.13
2024-01-06T15:36:44.823Z,1.50
2024-01-06T15:39:11.716Z,1.25
2024-01-06T15:41:39.102Z,3.33
2024-01-06T15:44:06.037Z,3.97
2024-01-06T15:46:33.011Z,1.70
2024-01-06T15:49:00.141Z,2.05
2024-01-06T15:51:27.179Z,2.50
2024-01-06T15:53:54.183Z,1.55
2024-01-06T15:56:21.454Z,2.50
2024-01-06T15:58:48.754Z,3.28
2024-01-06T16:01:15.728Z,3.03
2024-01-06T16:03:42.943Z,3.25
2024-01-06T16:06:10.765Z,4.53
2024-01-06T16:08:37.867Z,3.65
2024-01-06T16:11:04.912Z,1.98
2024-01-06T16:13:31.822Z,3.22
2024-01-06T16:15:58.836Z,2.15
2024-01-06T16:18:26.121Z,5.97
2024-01-06T16:20:55.281Z,2.22
2024-01-06T16:23:25.077Z,2.75
2024-01-06T16:25:52.056Z,4.13
2024-01-06T16:28:19.128Z,1.83
2024-01-06T16:30:46.466Z,1.73
2024-01-06T16:33:14.118Z,3.85
2024-01-06T16:35:43.022Z,2.65
2024-01-06T16:38:09.957Z,5.68
2024-01-06T16:40:37.029Z,2.85
2024-01-06T16:43:04.150Z,2.95
2024-01-06T16:45:33.140Z,2.13
2024-01-06T16:48:00.269Z,5.32
2024-01-06T16:50:27.412Z,3.90
2024-01-06T16:52:54.397Z,2.15
2024-01-06T16:55:21.522Z,3.70
2024-01-06T16:57:48.813Z,4.78
2024-01-06T17:00:16.648Z,2.85
2024-01-06T17:02:43.652Z,3.78
2024-01-06T17:05:10.776Z,5.30
2024-01-06T17:07:37.884Z,3.13
2024-01-06T17:10:05.157Z,2.22
2024-01-06T17:12:33.453Z,3.42
2024-01-06T17:15:01.095Z,3.83
2024-01-06T17:17:28.302Z,2.33
2024-01-06T17:19:55.615Z,2.72
2024-01-06T17:22:24.901Z,4.38
2024-01-06T17:24:52.337Z,2.45
2024-01-06T17:27:19.370Z,3.33
2024-01-06T17:29:46.704Z,2.88
2024-01-06T17:32:13.651Z,2.17
2024-01-06T17:34:40.554Z,2.50
2024-01-06T17:37:07.840Z,2.72
2024-01-06T17:39:34.928Z,3.75
2024-01-06T17:42:01.961Z,2.20
2024-01-06T17:44:30.161Z,2.90
2024-01-06T17:46:57.416Z,3.35
2024-01-06T17:49:24.650Z,4.80
2024-01-06T17:51:54.649Z,3.65
2024-01-06T17:54:22.019Z,2.92
2024-01-06T17:56:49.124Z,2.97
2024-01-06T17:59:16.042Z,6.13
2024-01-06T18:01:43.579Z,2.88
2024-01-06T18:04:10.841Z,4.13
2024-01-06T18:06:38.031Z,2.90
2024-01-06T18:09:06.524Z,5.47
2024-01-06T18:11:33.740Z,3.70
2024-01-06T18:14:00.670Z,3.15
2024-01-06T18:16:27.569Z,3.90
2024-01-06T18:18:54.613Z,3.60
2024-01-06T18:21:21.796Z,3.10
2024-01-06T18:23:48.746Z,3.22
2024-01-06T18:26:17.246Z,3.47
2024-01-06T18:28:44.218Z,3.58
2024-01-06T18:31:11.342Z,2.78
2024-01-06T18:33:39.861Z,3.03
2024-01-06T18:36:08.181Z,4.80
2024-01-06T18:38:35.202Z,2.70
2024-01-06T18:41:02.815Z,2.80
2024-01-06T18:43:29.619Z,3.45
2024-01-06T18:45:56.801Z,6.32
2024-01-06T18:48:23.866Z,3.85
2024-01-06T18:50:50.896Z,3.00
2024-01-06T18:53:17.823Z,3.13
2024-01-06T18:55:44.773Z,3.67
2024-01-06T18:58:12.058Z,3.40
2024-01-06T19:00:38.934Z,5.43
2024-01-06T19:03:06.145Z,3.72
2024-01-06T19:05:34.525Z,3.45
2024-01-06T19:08:01.793Z,2.97
2024-01-06T19:10:28.937Z,2.58
2024-01-06T19:12:56.056Z,2.47
2024-01-06T19:15:23.083Z,3.33
2024-01-06T19:17:50.896Z,3.38
2024-01-06T19:20:19.027Z,2.45
2024-01-06T19:22:57.929Z,3.15
2024-01-06T19:25:33.055Z,2.13
2024-01-06T19:28:00.134Z,2.17
2024-01-06T19:30:27.198Z,5.30
2024-01-06T19:32:54.318Z,4.50
2024-01-06T19:35:21.267Z,3.63
2024-01-06T19:37:49.355Z,4.50
2024-01-06T19:40:17.764Z,4.55
2024-01-06T19:42:48.613Z,2.60
2024-01-06T19:45:16.593Z,2.63
2024-01-06T19:47:44.068Z,1.92
2024-01-06T19:50:13.664Z,2.50
2024-01-06T19:52:40.835Z,4.65
2024-01-06T19:55:11.262Z,2.88
2024-01-06T19:57:38.458Z,2.08
2024-01-06T20:00:06.261Z,2.42
2024-01-06T20:02:33.170Z,3.58
2024-01-06T20:05:00.203Z,1.98
2024-01-06T20:07:30.098Z,3.88
2024-01-06T20:09:58.208Z,1.85
2024-01-06T20:12:26.335Z,2.55
2024-01-06T20:14:55.627Z,4.03
2024-01-06T20:17:23.412Z,2.80
2024-01-06T20:19:50.702Z,2.67
2024-01-06T20:22:17.753Z,3.05
2024-01-06T20:24:44.856Z,2.40
2024-01-06T20:27:13.116Z,2.75
2024-01-06T20:29:39.932Z,2.63
2024-01-06T20:32:07.636Z,2.75
2024-01-06T20:34:35.109Z,1.80
2024-01-06T20:37:02.543Z,9.35
2024-01-06T20:39:29.593Z,4.70
2024-01-06T20:41:56.763Z,3.33
2024-01-06T20:44:23.645Z,6.05
2024-01-06T20:46:51.535Z,3.97
2024-01-06T20:49:18.501Z,2.58
2024-01-06T20:51:45.514Z,3.17
2024-01-06T20:54:12.584Z,3.55
2024-01-06T20:56:40.286Z,3.15
2024-01-06T20:59:07.624Z,3.30
2024-01-06T21:01:34.734Z,1.77
2024-01-06T21:04:02.716Z,3.72
2024-01-06T21:06:30.025Z,3.55
2024-01-06T21:08:56.989Z,1.65
2024-01-06T21:11:23.850Z,2.80
2024-01-06T21:13:51.405Z,3.08
2024-01-06T21:16:18.313Z,3.47
2024-01-06T21:18:47.218Z,3.00
2024-01-06T21:21:16.988Z,2.95
2024-01-06T21:23:48.531Z,4.32
2024-01-06T21:26:16.489Z,3.28
2024-01-06T21:28:43.359Z,3.25
2024-01-06T21:31:10.607Z,2.28
2024-01-06T21:33:37.796Z,2.08
2024-01-06T21:36:05.112Z,2.67
2024-01-06T21:38:32.605Z,2.47
2024-01-06T21:40:59.598Z,2.30
2024-01-06T21:43:26.599Z,1.98
2024-01-06T21:45:54.375Z,5.55
2024-01-06T21:48:21.336Z,2.58
2024-01-06T21:50:49.271Z,2.63
2024-01-06T21:53:16.848Z,2.40
2024-01-06T21:55:44.441Z,3.30
2024-01-06T21:58:11.407Z,2.95
2024-01-06T22:00:38.384Z,2.67
2024-01-06T22:03:06.035Z,2.50
2024-01-06T22:05:33.265Z,2.60
2024-01-06T22:08:00.216Z,3.53
2024-01-06T22:10:33.825Z,7.13
2024-01-06T22:13:02.281Z,2.58
2024-01-06T22:15:30.696Z,2.80
2024-01-06T22:17:59.030Z,3.20
2024-01-06T22:20:26.136Z,4.55
2024-01-06T22:22:53.150Z,2.95
2024-01-06T22:25:20.031Z,2.88
2024-01-06T22:27:47.052Z,2.65
2024-01-06T22:30:17.727Z,2.25
2024-01-06T22:32:48.602Z,3.85
2024-01-06T22:35:16.002Z,2.30
2024-01-06T22:37:42.888Z,4.97
2024-01-06T22:40:10.342Z,4.60
2024-01-06T22:42:37.513Z,2.50
2024-01-06T22:45:04.675Z,1.80
2024-01-06T22:47:31.941Z,2.38
2024-01-06T22:49:58.957Z,3.42
2024-01-06T22:52:25.967Z,3.70
2024-01-06T22:54:52.977Z,3.97
2024-01-06T22:57:19.931Z,2.35
2024-01-06T22:59:46.878Z,2.22
2024-01-06T23:02:13.794Z,2.38
2024-01-06T23:04:40.720Z,4.43
2024-01-06T23:07:08.025Z,4.10
2024-01-06T23:09:35.039Z,3.00
2024-01-06T23:12:02.031Z,2.35
2024-01-06T23:14:28.916Z,3.97
2024-01-06T23:16:55.972Z,3.00
2024-01-06T23:19:23.014Z,3.55
2024-01-06T23:21:50.022Z,3.35
2024-01-06T23:24:19.963Z,2.42
2024-01-06T23:26:47.011Z,3.80
2024-01-06T23:29:13.844Z,4.65
2024-01-06T23:31:40.846Z,4.15
2024-01-06T23:34:18.333Z,3.20
2024-01-06T23:36:53.343Z,3.85
2024-01-06T23:39:20.192Z,5.15
2024-01-06T23:41:47.205Z,4.18
2024-01-06T23:44:15.267Z,3.03
2024-01-06T23:46:42.821Z,3.13
2024-01-06T23:49:14.165Z,4.07
2024-01-06T23:51:41.197Z,5.18
2024-01-06T23:54:08.337Z,4.15
2024-01-06T23:56:35.327Z,4.07
2024-01-06T23:59:02.237Z,5.93
